Time;durP1;ratioP1;P1;durP2;ratioP2;P2;SDS_P1;SDS_P2;PMS_P1;PMS_P2;Temp;Humidity;BMP_temperature;BMP_pressure;BME280_temperature;BME280_humidity;BME280_pressure;Samples;Min_cycle;Max_cycle;Signal;HPM_P1;HPM_P2
2024/05/01 00:01:41;;;;;;;;;;;;;;;13.96;100.00;101607.38;5431576;26;20210;-63
2024/05/01 00:04:07;;;;;;;;;;;;;;;13.87;100.00;101608.91;5449399;26;20514;-60
2024/05/01 00:06:32;;;;;;;;;;;;;;;13.93;100.00;101606.44;5452846;26;19964;-61
2024/05/01 00:08:57;;;;;;;;;;;;;;;13.83;100.00;101600.84;5456553;26;19943;-62
2024/05/01 00:11:22;;;;;;;;;;;;;;;13.93;100.00;101603.78;5448093;26;19967;-61
2024/05/01 00:13:48;;;;;;;;;;;;;;;13.83;100.00;101601.72;5451616;26;19935;-60
2024/05/01 00:16:13;;;;;;;;;;;;;;;13.81;100.00;101592.81;5444331;26;19948;-62
2024/05/01 00:18:38;;;;;;;;;;;;;;;13.81;100.00;101587.50;5454141;26;20002;-60
2024/05/01 00:21:03;;;;;;;;;;;;;;;13.74;100.00;101580.22;5444469;26;20049;-64
2024/05/01 00:23:28;;;;;;;;;;;;;;;13.77;100.00;101588.28;5454950;26;20012;-61
2024/05/01 00:25:54;;;;;;;;;;;;;;;13.80;100.00;101590.13;5444576;26;19980;-59
2024/05/01 00:28:19;;;;;;;;;;;;;;;13.72;100.00;101587.22;5447839;26;19935;-60
2024/05/01 00:30:44;;;;;;;;;;;;;;;13.74;100.00;101580.22;5451736;26;20309;-59
2024/05/01 00:33:10;;;;;;;;;;;;;;;13.75;100.00;101587.31;5450908;26;19960;-60
2024/05/01 00:35:35;;;;;;;;;;;;;;;13.66;100.00;101584.44;5453703;26;19937;-59
2024/05/01 00:38:00;;;;;;;;;;;;;;;13.70;100.00;101590.69;5452940;26;19978;-60
2024/05/01 00:40:26;;;;;;;;;;;;;;;13.64;100.00;101586.13;5451071;26;20360;-60
2024/05/01 00:42:52;;;;;;;;;;;;;;;13.69;100.00;101581.81;5454456;26;19992;-61
2024/05/01 00:45:17;;;;;;;;;;;;;;;13.75;100.00;101582.00;5457740;26;19988;-61
2024/05/01 00:47:42;;;;;;;;;;;;;;;13.64;100.00;101578.16;5460665;26;19943;-61
2024/05/01 00:50:08;;;;;;;;;;;;;;;13.49;100.00;101585.72;5458126;26;19933;-60
2024/05/01 00:52:33;;;;;;;;;;;;;;;13.52;100.00;101580.44;5448974;26;19928;-59
2024/05/01 00:55:00;;;;;;;;;;;;;;;13.66;100.00;101579.13;5448131;26;20050;-60
2024/05/01 00:57:26;;;;;;;;;;;;;;;13.62;100.00;101574.56;5456462;26;19928;-60
2024/05/01 00:59:52;;;;;;;;;;;;;;;13.58;100.00;101572.66;5457728;26;20051;-61
2024/05/01 01:02:18;;;;;;;;;;;;;;;13.48;100.00;101560.91;5466411;26;19943;-59
2024/05/01 01:04:43;;;;;;;;;;;;;;;13.54;100.00;101561.06;5456876;26;19972;-60
2024/05/01 01:07:08;;;;;;;;;;;;;;;13.49;100.00;101556.50;5465564;26;19929;-61
2024/05/01 01:09:34;;;;;;;;;;;;;;;13.24;100.00;101513.28;5458692;26;19932;-61
2024/05/01 01:12:00;;;;;;;;;;;;;;;13.40;100.00;101557.13;5458948;26;19935;-61
2024/05/01 01:14:25;;;;;;;;;;;;;;;13.48;100.00;101549.38;5415064;26;20014;-61
2024/05/01 01:16:50;;;;;;;;;;;;;;;13.46;100.00;101551.09;5459891;26;19928;-60
2024/05/01 01:19:16;;;;;;;;;;;;;;;13.46;100.00;101551.09;5458654;26;20366;-61
2024/05/01 01:21:41;;;;;;;;;;;;;;;13.57;100.00;101554.94;5455571;26;20396;-59
2024/05/01 01:24:06;;;;;;;;;;;;;;;13.43;100.00;101545.69;5454665;26;19985;-59
2024/05/01 01:26:32;;;;;;;;;;;;;;;13.31;100.00;101556.88;5448711;26;20400;-62
2024/05/01 01:28:57;;;;;;;;;;;;;;;13.37;100.00;101550.81;5459117;26;19935;-63
2024/05/01 01:31:22;;;;;;;;;;;;;;;13.41;100.00;101547.38;5449565;26;19928;-60
2024/05/01 01:33:47;;;;;;;;;;;;;;;13.34;100.00;101550.72;5453206;26;20294;-59
2024/05/01 01:36:12;;;;;;;;;;;;;;;13.43;100.00;101545.69;5469946;26;20416;-60
2024/05/01 01:38:37;;;;;;;;;;;;;;;13.34;100.00;101550.72;5466035;26;19956;-59
2024/05/01 01:41:03;;;;;;;;;;;;;;;13.38;100.00;101542.88;5433890;26;19935;-60
2024/05/01 01:43:28;;;;;;;;;;;;;;;13.38;100.00;101547.28;5466614;26;19928;-60
2024/05/01 01:45:53;;;;;;;;;;;;;;;13.24;100.00;101545.16;5465906;26;20341;-60
2024/05/01 01:48:18;;;;;;;;;;;;;;;13.30;100.00;101544.44;5450563;26;20002;-62
2024/05/01 01:50:44;;;;;;;;;;;;;;;13.32;100.00;101541.84;5450359;26;20480;-60
2024/05/01 01:53:09;;;;;;;;;;;;;;;13.27;100.00;101538.13;5449523;26;19929;-61
2024/05/01 01:55:34;;;;;;;;;;;;;;;13.31;100.00;101542.69;5435296;26;20003;-60
2024/05/01 01:58:02;;;;;;;;;;;;;;;13.23;100.00;101532.75;5471361;26;19928;-61
2024/05/01 02:00:27;;;;;;;;;;;;;;;13.17;100.00;101547.56;5456272;26;19937;-60
2024/05/01 02:02:52;;;;;;;;;;;;;;;13.18;100.00;101537.00;5456349;26;19961;-60
2024/05/01 02:05:18;;;;;;;;;;;;;;;13.16;100.00;101536.06;5452458;26;20005;-60
2024/05/01 02:07:43;;;;;;;;;;;;;;;13.09;100.00;101531.41;5450641;26;19968;-60
2024/05/01 02:10:08;;;;;;;;;;;;;;;13.19;100.00;101522.88;5448008;26;20511;-60
2024/05/01 02:12:33;;;;;;;;;;;;;;;13.17;100.00;101508.66;5442417;26;19958;-61
2024/05/01 02:14:58;;;;;;;;;;;;;;;13.19;100.00;101509.59;5459939;26;19970;-61
2024/05/01 02:17:24;;;;;;;;;;;;;;;13.14;100.00;101513.88;5459012;26;19935;-60
2024/05/01 02:19:49;;;;;;;;;;;;;;;13.17;100.00;101506.00;5455440;26;19961;-60
2024/05/01 02:22:14;;;;;;;;;;;;;;;13.09;100.00;101507.50;5451933;26;20041;-61
2024/05/01 02:24:39;;;;;;;;;;;;;;;13.13;100.00;101498.78;5455944;26;19998;-59
2024/05/01 02:27:04;;;;;;;;;;;;;;;13.12;100.00;101507.63;5443693;26;20086;-59
2024/05/01 02:29:29;;;;;;;;;;;;;;;13.17;100.00;101500.69;5465560;26;20252;-59
2024/05/01 02:31:55;;;;;;;;;;;;;;;13.13;100.00;101492.59;5452581;26;19936;-61
2024/05/01 02:34:20;;;;;;;;;;;;;;;13.14;100.00;101502.34;5458202;26;19935;-60
2024/05/01 02:36:45;;;;;;;;;;;;;;;13.11;100.00;101496.94;5463892;26;19947;-62
2024/05/01 02:39:10;;;;;;;;;;;;;;;13.04;100.00;101493.22;5464609;26;20507;-61
2024/05/01 02:41:35;;;;;;;;;;;;;;;13.09;100.00;101486.28;5461038;26;19935;-60
2024/05/01 02:44:01;;;;;;;;;;;;;;;13.14;100.00;101486.44;5449519;26;19932;-62
2024/05/01 02:46:26;;;;;;;;;;;;;;;13.07;100.00;101488.00;5450098;26;19938;-61
2024/05/01 02:48:52;;;;;;;;;;;;;;;13.17;100.00;101479.44;5457164;26;19929;-61
2024/05/01 02:51:17;;;;;;;;;;;;;;;13.03;100.00;101479.88;5430845;26;20682;-60
2024/05/01 02:53:42;;;;;;;;;;;;;;;13.12;100.00;101481.06;5460599;26;19939;-61
2024/05/01 02:56:07;;;;;;;;;;;;;;;13.13;100.00;101477.56;5457044;26;19935;-58
2024/05/01 02:58:32;;;;;;;;;;;;;;;13.11;100.00;101484.56;5459637;26;20351;-60
2024/05/01 03:00:58;;;;;;;;;;;;;;;13.11;100.00;101473.97;5446489;26;19937;-61
2024/05/01 03:03:23;;;;;;;;;;;;;;;13.12;100.00;101481.06;5444348;26;19935;-60
2024/05/01 03:05:48;;;;;;;;;;;;;;;13.21;100.00;101484.00;5454717;26;20422;-60
2024/05/01 03:08:13;;;;;;;;;;;;;;;13.08;100.00;101479.19;5445249;26;20284;-59
2024/05/01 03:10:39;;;;;;;;;;;;;;;13.17;100.00;101475.91;5443306;26;20270;-59
2024/05/01 03:13:04;;;;;;;;;;;;;;;13.24;100.00;101475.22;5439373;26;20005;-60
2024/05/01 03:15:29;;;;;;;;;;;;;;;13.21;100.00;101484.00;5445711;26;19936;-60
2024/05/01 03:17:54;;;;;;;;;;;;;;;13.23;100.00;101470.78;5443969;26;19936;-59
2024/05/01 03:20:20;;;;;;;;;;;;;;;13.23;100.00;101476.97;5435590;26;19947;-60
2024/05/01 03:22:45;;;;;;;;;;;;;;;13.23;100.00;101474.34;5442945;26;20040;-60
2024/05/01 03:25:10;;;;;;;;;;;;;;;13.30;100.00;101479.81;5445701;26;19933;-59
2024/05/01 03:27:35;;;;;;;;;;;;;;;13.31;100.00;101471.00;5440593;26;19946;-59
2024/05/01 03:30:00;;;;;;;;;;;;;;;13.38;100.00;101478.25;5436003;26;19940;-59
2024/05/01 03:32:25;;;;;;;;;;;;;;;13.26;100.00;101488.56;5443086;26;19936;-61
2024/05/01 03:34:51;;;;;;;;;;;;;;;13.42;100.00;101482.81;5443979;26;19928;-60
2024/05/01 03:37:16;;;;;;;;;;;;;;;13.44;100.00;101484.66;5418673;26;19944;-59
2024/05/01 03:39:41;;;;;;;;;;;;;;;13.52;100.00;101482.19;5445112;26;19940;-61
2024/05/01 03:42:06;;;;;;;;;;;;;;;13.41;100.00;101479.25;5442065;26;19929;-63
2024/05/01 03:44:32;;;;;;;;;;;;;;;13.50;100.00;101483.94;5440590;26;20056;-60
2024/05/01 03:46:57;;;;;;;;;;;;;;;13.60;100.00;101483.31;5444318;26;19929;-60
2024/05/01 03:49:22;;;;;;;;;;;;;;;13.64;100.00;101481.63;5407717;26;19929;-61
2024/05/01 03:51:49;;;;;;;;;;;;;;;13.67;100.00;101481.72;5444111;26;19928;-62
2024/05/01 03:54:14;;;;;;;;;;;;;;;13.74;100.00;101486.31;5448662;26;20213;-60
2024/05/01 03:56:40;;;;;;;;;;;;;;;13.83;100.00;101484.81;5447084;26;19939;-60
2024/05/01 03:59:05;;;;;;;;;;;;;;;13.74;100.00;101489.88;5448631;26;19935;-61
2024/05/01 04:01:31;;;;;;;;;;;;;;;13.76;100.00;101482.84;5447880;26;19928;-59
2024/05/01 04:03:56;;;;;;;;;;;;;;;13.92;100.00;101490.34;5450801;26;19936;-60
2024/05/01 04:06:22;;;;;;;;;;;;;;;13.90;100.00;101485.84;5448005;26;20253;-61
2024/05/01 04:08:48;;;;;;;;;;;;;;;13.87;100.00;101488.41;5444124;26;19928;-60
2024/05/01 04:11:13;;;;;;;;;;;;;;;13.84;100.00;101483.06;5439320;26;19936;-60
2024/05/01 04:13:38;;;;;;;;;;;;;;;13.82;100.00;101471.47;5445288;26;19935;-60
2024/05/01 04:16:08;;;;;;;;;;;;;;;13.87;100.00;101472.47;5441605;26;19941;-59
2024/05/01 04:18:33;;;;;;;;;;;;;;;13.87;100.00;101470.72;5451036;26;20330;-60
2024/05/01 04:20:58;;;;;;;;;;;;;;;13.81;100.00;101470.59;5445581;26;20394;-60
2024/05/01 04:23:24;;;;;;;;;;;;;;;13.87;100.00;101468.06;5450742;26;19940;-61
2024/05/01 04:25:49;;;;;;;;;;;;;;;14.04;100.00;101472.91;5466973;26;19935;-60
2024/05/01 04:28:14;;;;;;;;;;;;;;;14.06;100.00;101472.06;5454818;26;20019;-59
2024/05/01 04:30:39;;;;;;;;;;;;;;;14.04;100.00;101467.56;5458574;26;19998;-60
2024/05/01 04:33:04;;;;;;;;;;;;;;;14.21;100.00;101464.47;5454972;26;19932;-60
2024/05/01 04:35:29;;;;;;;;;;;;;;;14.38;100.00;101467.50;5459085;26;19929;-60
2024/05/01 04:37:55;;;;;;;;;;;;;;;14.32;100.00;101475.38;5454192;26;19932;-60
2024/05/01 04:40:20;;;;;;;;;;;;;;;14.48;100.00;101456.28;5447575;26;20416;-62
2024/05/01 04:42:45;;;;;;;;;;;;;;;14.54;100.00;101461.75;5451460;26;20001;-60
2024/05/01 04:45:10;;;;;;;;;;;;;;;14.71;100.00;101461.22;5462113;26;19928;-60
2024/05/01 04:47:36;;;;;;;;;;;;;;;14.83;100.00;101453.50;5459450;26;20659;-60
2024/05/01 04:50:01;;;;;;;;;;;;;;;14.80;100.00;101464.06;5469235;26;19928;-62
2024/05/01 04:52:26;;;;;;;;;;;;;;;14.84;100.00;101452.63;5447875;26;19929;-60
2024/05/01 04:54:51;;;;;;;;;;;;;;;14.90;100.00;101463.38;5453556;26;20257;-60
2024/05/01 04:57:16;;;;;;;;;;;;;;;14.95;100.00;101454.63;5452199;26;19934;-59
2024/05/01 04:59:41;;;;;;;;;;;;;;;15.33;100.00;101452.72;5459486;26;20004;-62
2024/05/01 05:02:07;;;;;;;;;;;;;;;15.54;100.00;101456.66;5467228;26;19976;-61
2024/05/01 05:04:32;;;;;;;;;;;;;;;15.53;100.00;101460.19;5463834;26;20020;-62
2024/05/01 05:06:57;;;;;;;;;;;;;;;15.48;100.00;101452.13;5465755;26;19987;-62
2024/05/01 05:09:22;;;;;;;;;;;;;;;15.31;100.00;101457.13;5465813;26;19928;-60
2024/05/01 05:11:47;;;;;;;;;;;;;;;15.33;100.00;101458.06;5470899;26;19932;-61
2024/05/01 05:14:13;;;;;;;;;;;;;;;15.22;100.00;101470.28;5460934;26;19936;-60
2024/05/01 05:16:38;;;;;;;;;;;;;;;15.18;100.00;101464.84;5463099;26;20033;-59
2024/05/01 05:19:03;;;;;;;;;;;;;;;15.19;100.00;101464.91;5451659;26;19935;-60
2024/05/01 05:21:29;;;;;;;;;;;;;;;15.14;100.00;101461.22;5470128;26;19997;-62
2024/05/01 05:23:54;;;;;;;;;;;;;;;15.13;100.00;101466.53;5441558;26;19928;-61
2024/05/01 05:26:19;;;;;;;;;;;;;;;15.50;100.00;101461.03;5465563;26;20466;-59
2024/05/01 05:28:45;;;;;;;;;;;;;;;15.69;100.00;101456.97;5455472;26;21399;-60
2024/05/01 05:31:10;;;;;;;;;;;;;;;15.97;100.00;101443.22;5450318;26;19935;-59
2024/05/01 05:33:36;;;;;;;;;;;;;;;15.97;100.00;101456.56;5442894;26;19929;-59
2024/05/01 05:36:01;;;;;;;;;;;;;;;15.86;100.00;101450.16;5440200;26;20431;-60
2024/05/01 05:38:26;;;;;;;;;;;;;;;15.71;100.00;101449.00;5436585;26;19967;-61
2024/05/01 05:40:51;;;;;;;;;;;;;;;16.19;100.00;101443.56;5441423;26;19928;-60
2024/05/01 05:43:16;;;;;;;;;;;;;;;16.06;100.00;101446.94;5444917;26;19983;-62
2024/05/01 05:45:43;;;;;;;;;;;;;;;16.06;100.00;101441.59;5459742;26;20501;-61
2024/05/01 05:48:08;;;;;;;;;;;;;;;16.31;100.00;101454.41;5442042;26;19935;-60
2024/05/01 05:50:34;;;;;;;;;;;;;;;17.62;100.00;101429.38;5445734;26;19929;-60
2024/05/01 05:52:59;;;;;;;;;;;;;;;18.76;100.00;101417.72;5458332;26;19928;-59
2024/05/01 05:55:24;;;;;;;;;;;;;;;17.97;100.00;101427.94;5448221;26;20396;-61
2024/05/01 05:57:49;;;;;;;;;;;;;;;17.30;100.00;101424.59;5417662;26;19936;-59
2024/05/01 06:00:15;;;;;;;;;;;;;;;16.82;100.00;101432.03;5457375;26;19937;-60
2024/05/01 06:02:40;;;;;;;;;;;;;;;16.85;100.00;101432.06;5458642;26;20429;-62
2024/05/01 06:05:05;;;;;;;;;;;;;;;16.85;100.00;101437.41;5459971;26;20006;-61
2024/05/01 06:07:31;;;;;;;;;;;;;;;17.07;100.00;101434.13;5456470;26;19932;-62
2024/05/01 06:09:56;;;;;;;;;;;;;;;17.28;100.00;101425.47;5468918;26;20447;-60
2024/05/01 06:12:21;;;;;;;;;;;;;;;17.50;100.00;101430.13;5456988;26;19928;-60
2024/05/01 06:14:46;;;;;;;;;;;;;;;17.39;100.00;101435.38;5460998;26;19938;-61
2024/05/01 06:17:11;;;;;;;;;;;;;;;17.21;100.00;101428.94;5453675;26;19936;-61
2024/05/01 06:19:37;;;;;;;;;;;;;;;17.40;100.00;101431.84;5451061;26;19939;-60
2024/05/01 06:22:02;;;;;;;;;;;;;;;17.70;100.00;101427.69;5466009;26;19929;-60
2024/05/01 06:24:27;;;;;;;;;;;;;;;18.03;100.00;101427.97;5458611;26;20632;-60
2024/05/01 06:26:52;;;;;;;;;;;;;;;18.38;100.00;101421.94;5440727;26;19933;-62
2024/05/01 06:29:17;;;;;;;;;;;;;;;18.42;100.00;101426.44;5442067;26;19943;-62
2024/05/01 06:31:43;;;;;;;;;;;;;;;18.24;100.00;101420.97;5448724;26;19943;-61
2024/05/01 06:34:08;;;;;;;;;;;;;;;18.30;100.00;101421.03;5446011;26;19985;-61
2024/05/01 06:36:36;;;;;;;;;;;;;;;18.34;100.00;101417.50;5433666;26;19939;-61
2024/05/01 06:39:02;;;;;;;;;;;;;;;18.73;100.00;101417.72;5439322;26;19929;-60
2024/05/01 06:41:27;;;;;;;;;;;;;;;19.07;100.00;101417.84;5444117;26;19944;-60
2024/05/01 06:43:52;;;;;;;;;;;;;;;18.99;100.00;101415.16;5446378;26;20433;-62
2024/05/01 06:46:20;;;;;;;;;;;;;;;19.11;100.00;101403.56;5447065;26;19936;-62
2024/05/01 06:48:45;;;;;;;;;;;;;;;18.44;100.00;101377.38;5446200;26;19978;-61
2024/05/01 06:51:10;;;;;;;;;;;;;;;18.77;100.00;101416.84;5449778;26;19935;-62
2024/05/01 06:53:36;;;;;;;;;;;;;;;19.31;100.00;101412.56;5434795;26;19963;-59
2024/05/01 06:56:01;;;;;;;;;;;;;;;19.44;100.00;101406.31;5454970;26;19932;-60
2024/05/01 06:58:27;;;;;;;;;;;;;;;19.50;100.00;101407.25;5444357;26;19936;-61
2024/05/01 07:00:52;;;;;;;;;;;;;;;19.59;100.00;101412.59;5443089;26;20384;-61
2024/05/01 07:03:17;;;;;;;;;;;;;;;19.81;100.00;101398.31;5447782;26;19985;-59
2024/05/01 07:05:42;;;;;;;;;;;;;;;20.04;100.00;101409.94;5451899;26;19940;-60
2024/05/01 07:08:07;;;;;;;;;;;;;;;19.67;100.00;101408.16;5452314;26;19929;-60
2024/05/01 07:10:33;;;;;;;;;;;;;;;19.60;100.00;101409.03;5443148;26;19929;-59
2024/05/01 07:12:58;;;;;;;;;;;;;;;19.90;100.00;101403.69;5446864;26;19928;-60
2024/05/01 07:15:23;;;;;;;;;;;;;;;20.15;100.00;101400.06;5455181;26;19968;-63
2024/05/01 07:17:48;;;;;;;;;;;;;;;20.34;100.00;101402.72;5440488;26;19936;-61
2024/05/01 07:20:13;;;;;;;;;;;;;;;20.37;100.00;101398.28;5448143;26;19933;-60
2024/05/01 07:22:39;;;;;;;;;;;;;;;20.74;100.00;101396.38;5440598;26;19936;-61
2024/05/01 07:25:04;;;;;;;;;;;;;;;20.98;100.00;101398.03;5440249;26;19948;-59
2024/05/01 07:27:29;;;;;;;;;;;;;;;21.05;100.00;101394.41;5446674;26;20587;-59
2024/05/01 07:29:54;;;;;;;;;;;;;;;20.99;100.00;101390.84;5437295;26;19943;-61
2024/05/01 07:32:19;;;;;;;;;;;;;;;21.06;100.00;101389.94;5439058;26;19936;-59
2024/05/01 07:34:45;;;;;;;;;;;;;;;20.94;100.00;101388.22;5448918;26;21599;-61
2024/05/01 07:37:10;;;;;;;;;;;;;;;20.89;100.00;101383.75;5437967;26;19937;-59
2024/05/01 07:39:35;;;;;;;;;;;;;;;20.73;100.00;101378.47;5452954;26;19935;-61
2024/05/01 07:42:00;;;;;;;;;;;;;;;20.93;100.00;101386.44;5449956;26;19928;-62
2024/05/01 07:44:25;;;;;;;;;;;;;;;21.21;100.00;101389.88;5456413;26;19935;-60
2024/05/01 07:46:50;;;;;;;;;;;;;;;21.08;100.00;101385.44;5442389;26;20681;-62
2024/05/01 07:49:16;;;;;;;;;;;;;;;21.07;100.00;101378.28;5439321;26;20551;-61
2024/05/01 07:51:41;;;;;;;;;;;;;;;21.52;100.00;101372.63;5451254;26;19930;-60
2024/05/01 07:54:06;;;;;;;;;;;;;;;21.10;100.00;101373.78;5442549;26;19936;-60
2024/05/01 07:56:31;;;;;;;;;;;;;;;20.96;100.00;101372.06;5447131;26;19943;-60
2024/05/01 07:58:57;;;;;;;;;;;;;;;21.02;100.00;101374.72;5440541;26;19928;-62
2024/05/01 08:01:22;;;;;;;;;;;;;;;21.44;100.00;101369.09;5447789;26;19963;-59
2024/05/01 08:03:49;;;;;;;;;;;;;;;22.02;100.00;101368.63;5449743;26;19939;-60
2024/05/01 08:06:15;;;;;;;;;;;;;;;22.31;100.00;101364.75;5441057;26;20566;-63
2024/05/01 08:08:40;;;;;;;;;;;;;;;22.10;100.00;101369.44;5389154;26;1633052;-60
2024/05/01 08:11:05;;;;;;;;;;;;;;;22.41;100.00;101334.09;5444518;26;20692;-60
2024/05/01 08:13:31;;;;;;;;;;;;;;;22.43;100.00;101364.59;5439956;26;20010;-61
2024/05/01 08:15:56;;;;;;;;;;;;;;;22.44;100.00;101361.00;5444420;26;19970;-61
2024/05/01 08:18:21;;;;;;;;;;;;;;;22.46;100.00;101361.88;5442459;26;19939;-61
2024/05/01 08:20:46;;;;;;;;;;;;;;;22.32;100.00;101371.91;5445720;26;19935;-63
2024/05/01 08:23:14;;;;;;;;;;;;;;;22.26;100.00;101372.88;5441217;26;19944;-61
2024/05/01 08:25:39;;;;;;;;;;;;;;;22.91;100.00;101358.59;5443731;26;20451;-60
2024/05/01 08:28:04;;;;;;;;;;;;;;;22.88;100.00;101361.34;5436297;26;19932;-61
2024/05/01 08:30:30;;;;;;;;;;;;;;;22.92;100.00;101357.69;5440371;26;19960;-60
2024/05/01 08:32:55;;;;;;;;;;;;;;;23.18;100.00;101356.44;5438206;26;19929;-61
2024/05/01 08:35:20;;;;;;;;;;;;;;;23.06;100.00;101359.28;5447570;26;19936;-60
2024/05/01 08:37:45;;;;;;;;;;;;;;;23.19;100.00;101352.84;5456267;26;20016;-60
2024/05/01 08:40:10;;;;;;;;;;;;;;;23.39;100.00;101360.59;5442235;26;19929;-62
2024/05/01 08:42:37;;;;;;;;;;;;;;;23.34;100.00;101363.38;5446492;26;19940;-60
2024/05/01 08:45:04;;;;;;;;;;;;;;;23.08;100.00;101365.56;5441939;26;19929;-60
2024/05/01 08:47:30;;;;;;;;;;;;;;;23.35;100.00;101354.38;5449716;26;19929;-62
2024/05/01 08:49:55;;;;;;;;;;;;;;;23.60;100.00;101344.97;5441266;26;19981;-61
2024/05/01 08:52:22;;;;;;;;;;;;;;;23.71;100.00;101354.72;5452897;26;19929;-63
2024/05/01 08:54:51;;;;;;;;;;;;;;;23.58;100.00;101341.41;5444304;26;20017;-61
2024/05/01 08:57:17;;;;;;;;;;;;;;;23.49;100.00;101344.25;5448999;26;19986;-60
2024/05/01 08:59:42;;;;;;;;;;;;;;;23.29;100.00;101364.34;5448084;26;19982;-61
2024/05/01 09:02:15;;;;;;;;;;;;;;;22.78;100.00;101357.00;5453951;26;19933;-61
2024/05/01 09:04:40;;;;;;;;;;;;;;;22.54;100.00;101352.75;5451066;26;19936;-61
2024/05/01 09:07:05;;;;;;;;;;;;;;;22.58;100.00;101356.31;5436235;26;19998;-61
2024/05/01 09:09:31;;;;;;;;;;;;;;;22.90;100.00;101346.03;5439606;26;19970;-61
2024/05/01 09:11:56;;;;;;;;;;;;;;;23.06;100.00;101345.81;5447355;26;19936;-61
2024/05/01 09:14:30;;;;;;;;;;;;;;;23.58;100.00;101329.72;5447518;26;19982;-61
2024/05/01 09:16:56;;;;;;;;;;;;;;;23.57;100.00;101326.13;5449633;26;20745;-61
2024/05/01 09:19:21;;;;;;;;;;;;;;;23.67;100.00;101323.28;5455002;26;19935;-62
2024/05/01 09:21:46;;;;;;;;;;;;;;;23.73;100.00;101333.97;5459432;26;19928;-61
2024/05/01 09:24:11;;;;;;;;;;;;;;;23.93;100.00;101337.19;5451110;26;19936;-60
2024/05/01 09:26:37;;;;;;;;;;;;;;;23.71;100.00;101330.44;5447210;26;20693;-61
2024/05/01 09:29:03;;;;;;;;;;;;;;;23.47;100.00;101327.19;5446788;26;19929;-61
2024/05/01 09:31:28;;;;;;;;;;;;;;;23.70;100.00;101326.84;5441782;26;19940;-60
2024/05/01 09:33:53;;;;;;;;;;;;;;;23.94;100.00;101322.78;5436415;26;19968;-61
2024/05/01 09:36:18;;;;;;;;;;;;;;;23.86;100.00;101316.66;5445659;26;19932;-60
2024/05/01 09:38:44;;;;;;;;;;;;;;;24.23;100.00;101312.38;5440106;26;22178;-60
2024/05/01 09:41:12;;;;;;;;;;;;;;;24.51;100.00;101311.78;5447986;26;19928;-60
2024/05/01 09:43:44;;;;;;;;;;;;;;;24.71;100.00;101323.06;5446373;26;20840;-61
2024/05/01 09:46:09;;;;;;;;;;;;;;;24.33;100.00;101315.75;5445768;26;20015;-62
2024/05/01 09:48:36;;;;;;;;;;;;;;;24.66;100.00;101311.44;5446949;26;19937;-60
2024/05/01 09:51:02;;;;;;;;;;;;;;;24.58;100.00;101317.03;5445348;26;20567;-60
2024/05/01 09:53:27;;;;;;;;;;;;;;;24.41;100.00;101318.31;5442728;26;19933;-63
2024/05/01 09:55:53;;;;;;;;;;;;;;;24.25;100.00;101326.69;5436586;26;19962;-61
2024/05/01 09:58:18;;;;;;;;;;;;;;;24.17;100.00;101320.53;5438709;26;19968;-62
2024/05/01 10:00:44;;;;;;;;;;;;;;;23.89;100.00;101324.69;5439657;26;20001;-60
2024/05/01 10:03:11;;;;;;;;;;;;;;;24.06;100.00;101317.19;5447537;26;19998;-61
2024/05/01 10:05:38;;;;;;;;;;;;;;;24.19;100.00;101313.31;5462367;26;20610;-60
2024/05/01 10:08:04;;;;;;;;;;;;;;;23.89;100.00;101309.41;5455307;26;20002;-60
2024/05/01 10:10:30;;;;;;;;;;;;;;;24.48;100.00;101314.53;5449217;26;19928;-62
2024/05/01 10:12:57;;;;;;;;;;;;;;;24.34;100.00;101311.25;5450330;26;20349;-61
2024/05/01 10:15:44;;;;;;;;;;;;;;;24.26;100.00;101319.50;5441300;26;19932;-60
2024/05/01 10:18:11;;;;;;;;;;;;;;;24.13;100.00;101308.00;5437946;26;19940;-62
2024/05/01 10:20:52;;;;;;;;;;;;;;;24.38;100.00;101307.56;5438137;26;19928;-60
2024/05/01 10:23:30;;;;;;;;;;;;;;;24.45;100.00;101309.19;5457973;26;19942;-62
2024/05/01 10:26:00;;;;;;;;;;;;;;;24.78;100.00;101304.88;5444201;26;19935;-63
2024/05/01 10:28:26;;;;;;;;;;;;;;;25.05;100.00;101300.69;5447221;26;19997;-62
2024/05/01 10:30:58;;;;;;;;;;;;;;;24.63;100.00;101306.09;5447546;26;19952;-62
2024/05/01 10:33:23;;;;;;;;;;;;;;;25.09;100.00;101302.41;5445929;26;19940;-63
2024/05/01 10:35:49;;;;;;;;;;;;;;;24.72;100.00;101303.22;5465279;26;19928;-61
2024/05/01 10:38:16;;;;;;;;;;;;;;;24.73;100.00;101293.28;5466155;26;19929;-63
2024/05/01 10:40:42;;;;;;;;;;;;;;;24.73;100.00;101296.88;5463875;26;20764;-61
2024/05/01 10:43:07;;;;;;;;;;;;;;;25.00;100.00;101286.38;5447668;26;19961;-61
2024/05/01 10:45:32;;;;;;;;;;;;;;;25.03;100.00;101286.31;5462821;26;19928;-61
2024/05/01 10:47:57;;;;;;;;;;;;;;;25.48;100.00;101285.16;5464792;26;19955;-61
2024/05/01 10:50:23;;;;;;;;;;;;;;;25.04;100.00;101247.50;5464365;26;19935;-62
2024/05/01 10:52:48;;;;;;;;;;;;;;;25.24;100.00;101278.56;5425608;26;20358;-60
2024/05/01 10:55:14;;;;;;;;;;;;;;;25.52;100.00;101270.63;5449631;26;19936;-61
2024/05/01 10:57:39;;;;;;;;;;;;;;;25.39;100.00;101274.56;5428066;26;19928;-62
2024/05/01 11:00:04;;;;;;;;;;;;;;;25.40;100.00;101279.06;5431717;26;19937;-62
2024/05/01 11:02:30;;;;;;;;;;;;;;;25.41;100.00;101278.13;5436911;26;20565;-61
2024/05/01 11:04:58;;;;;;;;;;;;;;;25.74;100.00;101267.38;5433285;26;19929;-61
2024/05/01 11:07:23;;;;;;;;;;;;;;;25.78;100.00;101264.56;5443795;26;20617;-61
2024/05/01 11:09:55;;;;;;;;;;;;;;;25.67;100.00;101270.25;5440142;26;19928;-61
2024/05/01 11:12:21;;;;;;;;;;;;;;;25.73;100.00;101263.78;5443054;26;19947;-60
2024/05/01 11:14:46;;;;;;;;;;;;;;;25.86;100.00;101256.19;5434484;26;21031;-60
2024/05/01 11:17:12;;;;;;;;;;;;;;;26.16;100.00;101252.63;5447363;26;19978;-61
2024/05/01 11:19:37;;;;;;;;;;;;;;;26.21;100.00;101245.25;5442896;26;20025;-61
2024/05/01 11:22:03;;;;;;;;;;;;;;;25.82;100.00;101254.50;5450063;26;19939;-62
2024/05/01 11:24:28;;;;;;;;;;;;;;;25.56;100.00;101250.66;5410673;26;20011;-61
2024/05/01 11:26:53;;;;;;;;;;;;;;;25.47;100.00;101244.59;5461659;26;20386;-61
2024/05/01 11:29:18;;;;;;;;;;;;;;;25.50;100.00;101245.41;5436811;26;19928;-60
2024/05/01 11:31:44;;;;;;;;;;;;;;;25.79;100.00;101246.50;5464984;26;20433;-61
2024/05/01 11:34:09;;;;;;;;;;;;;;;25.89;100.00;101248.00;5453299;26;19936;-61
2024/05/01 11:36:35;;;;;;;;;;;;;;;25.95;100.00;101242.41;5460693;26;20841;-61
2024/05/01 11:39:00;;;;;;;;;;;;;;;25.29;100.00;101235.13;5421496;26;19936;-61
2024/05/01 11:41:25;;;;;;;;;;;;;;;25.72;100.00;101239.44;5455481;26;20269;-61
2024/05/01 11:43:50;;;;;;;;;;;;;;;25.89;100.00;101223.63;5445812;26;19928;-60
2024/05/01 11:46:15;;;;;;;;;;;;;;;25.70;100.00;101230.47;5446016;26;20263;-61
2024/05/01 11:48:41;;;;;;;;;;;;;;;26.03;100.00;101224.09;5442517;26;19928;-61
2024/05/01 11:51:06;;;;;;;;;;;;;;;26.12;100.00;101226.56;5440443;26;19941;-62
2024/05/01 11:53:31;;;;;;;;;;;;;;;26.18;100.00;101229.06;5435132;26;19939;-60
2024/05/01 11:55:56;;;;;;;;;;;;;;;26.20;100.00;101221.78;5448062;26;20268;-61
2024/05/01 11:58:21;;;;;;;;;;;;;;;25.97;100.00;101213.47;5455436;26;19935;-61
2024/05/01 12:00:47;;;;;;;;;;;;;;;25.88;100.00;101213.72;5433794;26;19928;-60
2024/05/01 12:03:26;;;;;;;;;;;;;;;25.90;100.00;101211.84;5452976;26;19949;-60
2024/05/01 12:05:51;;;;;;;;;;;;;;;25.73;100.00;101219.56;5447117;26;19963;-60
2024/05/01 12:08:19;;;;;;;;;;;;;;;25.83;100.00;101205.72;5466758;26;19936;-61
2024/05/01 12:10:44;;;;;;;;;;;;;;;26.07;100.00;101204.13;5447797;26;19929;-59
2024/05/01 12:13:09;;;;;;;;;;;;;;;26.19;100.00;101198.34;5435400;26;19974;-61
2024/05/01 12:15:35;;;;;;;;;;;;;;;26.18;100.00;101199.25;5435376;26;20382;-60
2024/05/01 12:18:01;;;;;;;;;;;;;;;26.57;100.00;101201.72;5438838;26;20019;-59